sensor_id;sensor_type;location;lat;lon;timestamp;P1;durP1;ratioP1;P2;durP2;ratioP2
42094;SDS011;27753;55.724;37.612;2024-02-23T00:00:34;54.15;;;29.65;;
42094;SDS011;27753;55.724;37.612;2024-02-23T00:03:00;50.33;;;30.75;;
42094;SDS011;27753;55.724;37.612;2024-02-23T00:05:26;51.80;;;27.77;;
42094;SDS011;27753;55.724;37.612;2024-02-23T00:07:52;51.13;;;28.02;;
42094;SDS011;27753;55.724;37.612;2024-02-23T00:10:17;51.35;;;26.80;;
42094;SDS011;27753;55.724;37.612;2024-02-23T00:12:43;44.20;;;25.75;;
42094;SDS011;27753;55.724;37.612;2024-02-23T00:15:09;50.97;;;27.10;;
42094;SDS011;27753;55.724;37.612;2024-02-23T00:17:35;46.65;;;26.13;;
42094;SDS011;27753;55.724;37.612;2024-02-23T00:20:01;46.78;;;26.92;;
42094;SDS011;27753;55.724;37.612;2024-02-23T00:22:27;48.15;;;26.10;;
42094;SDS011;27753;55.724;37.612;2024-02-23T00:24:53;52.58;;;27.42;;
42094;SDS011;27753;55.724;37.612;2024-02-23T00:27:22;41.88;;;26.25;;
42094;SDS011;27753;55.724;37.612;2024-02-23T00:29:48;46.55;;;26.05;;
42094;SDS011;27753;55.724;37.612;2024-02-23T00:32:13;45.60;;;24.83;;
42094;SDS011;27753;55.724;37.612;2024-02-23T00:34:39;49.67;;;26.50;;
42094;SDS011;27753;55.724;37.612;2024-02-23T00:37:05;44.03;;;24.58;;
42094;SDS011;27753;55.724;37.612;2024-02-23T00:39:33;53.08;;;28.40;;
42094;SDS011;27753;55.724;37.612;2024-02-23T00:41:58;43.63;;;27.40;;
42094;SDS011;27753;55.724;37.612;2024-02-23T00:44:24;46.78;;;26.25;;
42094;SDS011;27753;55.724;37.612;2024-02-23T00:46:50;46.25;;;24.92;;
42094;SDS011;27753;55.724;37.612;2024-02-23T00:49:16;45.25;;;25.10;;
42094;SDS011;27753;55.724;37.612;2024-02-23T00:51:42;48.40;;;29.75;;
42094;SDS011;27753;55.724;37.612;2024-02-23T00:54:08;43.28;;;24.58;;
42094;SDS011;27753;55.724;37.612;2024-02-23T00:56:34;48.50;;;27.27;;
42094;SDS011;27753;55.724;37.612;2024-02-23T00:59:00;45.72;;;25.65;;
42094;SDS011;27753;55.724;37.612;2024-02-23T01:01:26;50.00;;;26.23;;
42094;SDS011;27753;55.724;37.612;2024-02-23T01:03:53;45.67;;;24.88;;
42094;SDS011;27753;55.724;37.612;2024-02-23T01:06:19;45.90;;;25.17;;
42094;SDS011;27753;55.724;37.612;2024-02-23T01:08:45;46.00;;;24.60;;
42094;SDS011;27753;55.724;37.612;2024-02-23T01:11:11;42.03;;;25.10;;
42094;SDS011;27753;55.724;37.612;2024-02-23T01:13:37;49.97;;;26.80;;
42094;SDS011;27753;55.724;37.612;2024-02-23T01:16:02;50.47;;;27.77;;
42094;SDS011;27753;55.724;37.612;2024-02-23T01:18:28;41.92;;;24.20;;
42094;SDS011;27753;55.724;37.612;2024-02-23T01:20:56;44.97;;;25.65;;
42094;SDS011;27753;55.724;37.612;2024-02-23T01:23:22;39.95;;;22.90;;
42094;SDS011;27753;55.724;37.612;2024-02-23T01:25:48;45.83;;;25.73;;
42094;SDS011;27753;55.724;37.612;2024-02-23T01:28:14;43.22;;;26.05;;
42094;SDS011;27753;55.724;37.612;2024-02-23T01:30:40;47.75;;;25.50;;
42094;SDS011;27753;55.724;37.612;2024-02-23T01:33:06;46.45;;;26.55;;
42094;SDS011;27753;55.724;37.612;2024-02-23T01:35:31;44.20;;;24.73;;
42094;SDS011;27753;55.724;37.612;2024-02-23T01:37:57;40.25;;;24.13;;
42094;SDS011;27753;55.724;37.612;2024-02-23T01:40:23;48.20;;;25.88;;
42094;SDS011;27753;55.724;37.612;2024-02-23T01:42:49;37.60;;;22.63;;
42094;SDS011;27753;55.724;37.612;2024-02-23T01:45:25;48.45;;;25.15;;
42094;SDS011;27753;55.724;37.612;2024-02-23T01:47:51;42.20;;;22.95;;
42094;SDS011;27753;55.724;37.612;2024-02-23T01:50:17;46.40;;;22.90;;
42094;SDS011;27753;55.724;37.612;2024-02-23T01:52:43;39.33;;;25.10;;
42094;SDS011;27753;55.724;37.612;2024-02-23T01:55:08;40.30;;;24.92;;
42094;SDS011;27753;55.724;37.612;2024-02-23T01:57:34;45.47;;;24.70;;
42094;SDS011;27753;55.724;37.612;2024-02-23T02:00:00;41.70;;;23.60;;
42094;SDS011;27753;55.724;37.612;2024-02-23T02:02:27;44.95;;;26.50;;
42094;SDS011;27753;55.724;37.612;2024-02-23T02:04:53;42.22;;;23.77;;
42094;SDS011;27753;55.724;37.612;2024-02-23T02:07:19;44.95;;;23.70;;
42094;SDS011;27753;55.724;37.612;2024-02-23T02:09:47;40.92;;;24.58;;
42094;SDS011;27753;55.724;37.612;2024-02-23T02:12:13;42.28;;;23.23;;
42094;SDS011;27753;55.724;37.612;2024-02-23T02:14:39;44.55;;;24.65;;
42094;SDS011;27753;55.724;37.612;2024-02-23T02:17:05;45.40;;;24.75;;
42094;SDS011;27753;55.724;37.612;2024-02-23T02:19:32;47.13;;;29.73;;
42094;SDS011;27753;55.724;37.612;2024-02-23T02:21:57;47.28;;;24.23;;
42094;SDS011;27753;55.724;37.612;2024-02-23T02:24:23;44.90;;;24.05;;
42094;SDS011;27753;55.724;37.612;2024-02-23T02:26:49;46.05;;;24.77;;
42094;SDS011;27753;55.724;37.612;2024-02-23T02:29:15;43.83;;;24.63;;
42094;SDS011;27753;55.724;37.612;2024-02-23T02:31:41;42.72;;;24.85;;
42094;SDS011;27753;55.724;37.612;2024-02-23T02:34:07;48.40;;;24.63;;
42094;SDS011;27753;55.724;37.612;2024-02-23T02:36:33;45.50;;;24.65;;
42094;SDS011;27753;55.724;37.612;2024-02-23T02:38:59;52.75;;;28.77;;
42094;SDS011;27753;55.724;37.612;2024-02-23T02:41:27;42.53;;;24.38;;
42094;SDS011;27753;55.724;37.612;2024-02-23T02:43:57;46.60;;;25.63;;
42094;SDS011;27753;55.724;37.612;2024-02-23T02:46:23;47.35;;;28.10;;
42094;SDS011;27753;55.724;37.612;2024-02-23T02:48:48;43.28;;;24.90;;
42094;SDS011;27753;55.724;37.612;2024-02-23T02:51:14;49.50;;;27.85;;
42094;SDS011;27753;55.724;37.612;2024-02-23T02:53:40;40.78;;;24.02;;
42094;SDS011;27753;55.724;37.612;2024-02-23T02:56:06;42.92;;;24.50;;
42094;SDS011;27753;55.724;37.612;2024-02-23T02:58:32;48.47;;;25.40;;
42094;SDS011;27753;55.724;37.612;2024-02-23T03:00:58;48.50;;;27.17;;
42094;SDS011;27753;55.724;37.612;2024-02-23T03:03:24;44.03;;;23.92;;
42094;SDS011;27753;55.724;37.612;2024-02-23T03:05:49;42.92;;;25.50;;
42094;SDS011;27753;55.724;37.612;2024-02-23T03:08:15;50.55;;;25.50;;
42094;SDS011;27753;55.724;37.612;2024-02-23T03:10:41;48.72;;;25.33;;
42094;SDS011;27753;55.724;37.612;2024-02-23T03:13:07;60.90;;;29.77;;
42094;SDS011;27753;55.724;37.612;2024-02-23T03:15:33;45.65;;;26.27;;
42094;SDS011;27753;55.724;37.612;2024-02-23T03:17:58;50.45;;;24.13;;
42094;SDS011;27753;55.724;37.612;2024-02-23T03:20:26;48.63;;;26.48;;
42094;SDS011;27753;55.724;37.612;2024-02-23T03:22:52;43.35;;;20.67;;
42094;SDS011;27753;55.724;37.612;2024-02-23T03:25:18;50.78;;;27.33;;
42094;SDS011;27753;55.724;37.612;2024-02-23T03:27:43;48.13;;;26.42;;
42094;SDS011;27753;55.724;37.612;2024-02-23T03:30:09;50.65;;;26.45;;
42094;SDS011;27753;55.724;37.612;2024-02-23T03:32:35;44.40;;;24.30;;
42094;SDS011;27753;55.724;37.612;2024-02-23T03:35:05;46.65;;;24.42;;
42094;SDS011;27753;55.724;37.612;2024-02-23T03:37:33;44.80;;;22.70;;
42094;SDS011;27753;55.724;37.612;2024-02-23T03:39:59;45.92;;;24.73;;
42094;SDS011;27753;55.724;37.612;2024-02-23T03:42:26;43.67;;;25.55;;
42094;SDS011;27753;55.724;37.612;2024-02-23T03:44:52;54.78;;;25.60;;
42094;SDS011;27753;55.724;37.612;2024-02-23T03:47:18;45.10;;;25.27;;
42094;SDS011;27753;55.724;37.612;2024-02-23T03:49:44;45.10;;;22.13;;
42094;SDS011;27753;55.724;37.612;2024-02-23T03:52:10;43.65;;;22.25;;
42094;SDS011;27753;55.724;37.612;2024-02-23T03:54:35;54.25;;;23.02;;
42094;SDS011;27753;55.724;37.612;2024-02-23T03:57:01;44.90;;;22.55;;
42094;SDS011;27753;55.724;37.612;2024-02-23T03:59:28;48.83;;;24.63;;
42094;SDS011;27753;55.724;37.612;2024-02-23T04:01:54;41.85;;;21.05;;
42094;SDS011;27753;55.724;37.612;2024-02-23T04:04:20;37.10;;;20.75;;
42094;SDS011;27753;55.724;37.612;2024-02-23T04:06:46;46.33;;;25.17;;
42094;SDS011;27753;55.724;37.612;2024-02-23T04:09:11;50.70;;;24.58;;
42094;SDS011;27753;55.724;37.612;2024-02-23T04:11:37;53.00;;;24.65;;
42094;SDS011;27753;55.724;37.612;2024-02-23T04:14:05;55.22;;;28.23;;
42094;SDS011;27753;55.724;37.612;2024-02-23T04:16:31;48.72;;;27.02;;
42094;SDS011;27753;55.724;37.612;2024-02-23T04:18:57;62.42;;;30.35;;
42094;SDS011;27753;55.724;37.612;2024-02-23T04:21:24;52.88;;;25.33;;
42094;SDS011;27753;55.724;37.612;2024-02-23T04:23:50;52.90;;;25.40;;
42094;SDS011;27753;55.724;37.612;2024-02-23T04:26:16;52.67;;;27.48;;
42094;SDS011;27753;55.724;37.612;2024-02-23T04:28:42;52.92;;;27.02;;
42094;SDS011;27753;55.724;37.612;2024-02-23T04:31:09;49.55;;;22.48;;
42094;SDS011;27753;55.724;37.612;2024-02-23T04:33:35;50.42;;;22.33;;
42094;SDS011;27753;55.724;37.612;2024-02-23T04:36:02;55.60;;;28.17;;
42094;SDS011;27753;55.724;37.612;2024-02-23T04:38:29;53.55;;;27.23;;
42094;SDS011;27753;55.724;37.612;2024-02-23T04:40:55;51.67;;;27.30;;
42094;SDS011;27753;55.724;37.612;2024-02-23T04:43:22;48.92;;;23.73;;
42094;SDS011;27753;55.724;37.612;2024-02-23T04:45:48;54.10;;;27.27;;
42094;SDS011;27753;55.724;37.612;2024-02-23T04:48:16;47.00;;;23.65;;
42094;SDS011;27753;55.724;37.612;2024-02-23T04:50:41;60.92;;;28.73;;
42094;SDS011;27753;55.724;37.612;2024-02-23T04:53:07;58.80;;;28.55;;
42094;SDS011;27753;55.724;37.612;2024-02-23T04:55:36;53.70;;;29.20;;
42094;SDS011;27753;55.724;37.612;2024-02-23T04:58:03;63.90;;;31.15;;
42094;SDS011;27753;55.724;37.612;2024-02-23T05:00:29;49.17;;;25.63;;
42094;SDS011;27753;55.724;37.612;2024-02-23T05:03:01;57.72;;;28.38;;
42094;SDS011;27753;55.724;37.612;2024-02-23T05:05:30;50.42;;;26.20;;
42094;SDS011;27753;55.724;37.612;2024-02-23T05:07:56;63.10;;;27.77;;
42094;SDS011;27753;55.724;37.612;2024-02-23T05:10:22;60.83;;;29.08;;
42094;SDS011;27753;55.724;37.612;2024-02-23T05:12:49;57.03;;;28.52;;
42094;SDS011;27753;55.724;37.612;2024-02-23T05:15:15;51.00;;;24.83;;
42094;SDS011;27753;55.724;37.612;2024-02-23T05:17:41;41.75;;;23.67;;
42094;SDS011;27753;55.724;37.612;2024-02-23T05:20:07;54.45;;;27.05;;
42094;SDS011;27753;55.724;37.612;2024-02-23T05:22:38;61.80;;;31.33;;
42094;SDS011;27753;55.724;37.612;2024-02-23T05:25:05;59.63;;;30.83;;
42094;SDS011;27753;55.724;37.612;2024-02-23T05:27:32;48.30;;;26.60;;
42094;SDS011;27753;55.724;37.612;2024-02-23T05:29:57;55.80;;;29.23;;
42094;SDS011;27753;55.724;37.612;2024-02-23T05:32:23;48.90;;;24.63;;
42094;SDS011;27753;55.724;37.612;2024-02-23T05:34:49;38.38;;;19.25;;
42094;SDS011;27753;55.724;37.612;2024-02-23T05:37:18;54.95;;;26.05;;
42094;SDS011;27753;55.724;37.612;2024-02-23T05:39:44;48.00;;;25.08;;
42094;SDS011;27753;55.724;37.612;2024-02-23T05:42:11;44.55;;;25.83;;
42094;SDS011;27753;55.724;37.612;2024-02-23T05:44:38;54.95;;;25.10;;
42094;SDS011;27753;55.724;37.612;2024-02-23T05:47:04;52.40;;;27.55;;
42094;SDS011;27753;55.724;37.612;2024-02-23T05:49:30;48.15;;;26.20;;
42094;SDS011;27753;55.724;37.612;2024-02-23T05:51:56;49.42;;;25.85;;
42094;SDS011;27753;55.724;37.612;2024-02-23T05:54:22;46.40;;;25.45;;
42094;SDS011;27753;55.724;37.612;2024-02-23T05:56:48;51.65;;;25.42;;
42094;SDS011;27753;55.724;37.612;2024-02-23T05:59:14;52.60;;;25.23;;
42094;SDS011;27753;55.724;37.612;2024-02-23T06:01:40;46.97;;;25.25;;
42094;SDS011;27753;55.724;37.612;2024-02-23T06:04:06;51.67;;;22.77;;
42094;SDS011;27753;55.724;37.612;2024-02-23T06:06:32;49.50;;;24.23;;
42094;SDS011;27753;55.724;37.612;2024-02-23T06:08:58;49.40;;;28.27;;
42094;SDS011;27753;55.724;37.612;2024-02-23T06:11:25;54.97;;;27.35;;
42094;SDS011;27753;55.724;37.612;2024-02-23T06:13:50;52.20;;;28.30;;
42094;SDS011;27753;55.724;37.612;2024-02-23T06:16:17;52.22;;;26.20;;
42094;SDS011;27753;55.724;37.612;2024-02-23T06:18:42;50.83;;;27.60;;
42094;SDS011;27753;55.724;37.612;2024-02-23T06:21:13;47.33;;;25.65;;
42094;SDS011;27753;55.724;37.612;2024-02-23T06:23:45;43.45;;;25.27;;
42094;SDS011;27753;55.724;37.612;2024-02-23T06:26:11;48.28;;;26.30;;
42094;SDS011;27753;55.724;37.612;2024-02-23T06:28:38;50.75;;;25.73;;
42094;SDS011;27753;55.724;37.612;2024-02-23T06:31:06;61.25;;;27.60;;
42094;SDS011;27753;55.724;37.612;2024-02-23T06:33:33;52.42;;;23.80;;
42094;SDS011;27753;55.724;37.612;2024-02-23T06:35:59;47.45;;;26.63;;
42094;SDS011;27753;55.724;37.612;2024-02-23T06:38:25;53.58;;;26.90;;
42094;SDS011;27753;55.724;37.612;2024-02-23T06:40:54;44.85;;;24.90;;
42094;SDS011;27753;55.724;37.612;2024-02-23T06:43:21;48.15;;;24.80;;
42094;SDS011;27753;55.724;37.612;2024-02-23T06:45:47;44.28;;;25.08;;
42094;SDS011;27753;55.724;37.612;2024-02-23T06:48:13;51.97;;;25.35;;
42094;SDS011;27753;55.724;37.612;2024-02-23T06:50:39;47.85;;;27.48;;
42094;SDS011;27753;55.724;37.612;2024-02-23T06:53:05;46.83;;;25.90;;
42094;SDS011;27753;55.724;37.612;2024-02-23T06:55:31;44.08;;;23.58;;
42094;SDS011;27753;55.724;37.612;2024-02-23T06:57:59;45.30;;;24.98;;
42094;SDS011;27753;55.724;37.612;2024-02-23T07:00:25;55.50;;;27.40;;
42094;SDS011;27753;55.724;37.612;2024-02-23T07:02:50;51.38;;;27.80;;
42094;SDS011;27753;55.724;37.612;2024-02-23T07:05:16;47.00;;;25.80;;
42094;SDS011;27753;55.724;37.612;2024-02-23T07:07:43;57.00;;;29.63;;
42094;SDS011;27753;55.724;37.612;2024-02-23T07:10:09;54.10;;;27.25;;
42094;SDS011;27753;55.724;37.612;2024-02-23T07:12:36;59.50;;;29.83;;
42094;SDS011;27753;55.724;37.612;2024-02-23T07:15:02;55.92;;;28.83;;
42094;SDS011;27753;55.724;37.612;2024-02-23T07:17:28;61.40;;;29.10;;
42094;SDS011;27753;55.724;37.612;2024-02-23T07:19:53;54.63;;;29.27;;
42094;SDS011;27753;55.724;37.612;2024-02-23T07:22:26;57.45;;;29.55;;
42094;SDS011;27753;55.724;37.612;2024-02-23T07:24:52;53.58;;;28.58;;
42094;SDS011;27753;55.724;37.612;2024-02-23T07:27:18;56.10;;;29.95;;
42094;SDS011;27753;55.724;37.612;2024-02-23T07:29:44;50.20;;;27.48;;
42094;SDS011;27753;55.724;37.612;2024-02-23T07:32:10;64.40;;;32.92;;
42094;SDS011;27753;55.724;37.612;2024-02-23T07:34:36;55.13;;;29.05;;
42094;SDS011;27753;55.724;37.612;2024-02-23T07:37:02;48.67;;;27.95;;
42094;SDS011;27753;55.724;37.612;2024-02-23T07:39:29;51.63;;;28.08;;
42094;SDS011;27753;55.724;37.612;2024-02-23T07:41:54;50.17;;;24.98;;
42094;SDS011;27753;55.724;37.612;2024-02-23T07:44:20;50.50;;;23.20;;
42094;SDS011;27753;55.724;37.612;2024-02-23T07:46:46;52.00;;;26.95;;
42094;SDS011;27753;55.724;37.612;2024-02-23T07:49:12;55.75;;;27.67;;
42094;SDS011;27753;55.724;37.612;2024-02-23T07:51:38;56.10;;;25.83;;
42094;SDS011;27753;55.724;37.612;2024-02-23T07:54:04;47.08;;;25.08;;
42094;SDS011;27753;55.724;37.612;2024-02-23T07:56:30;46.47;;;22.52;;
42094;SDS011;27753;55.724;37.612;2024-02-23T07:58:56;39.60;;;21.73;;
42094;SDS011;27753;55.724;37.612;2024-02-23T08:01:22;46.22;;;22.58;;
42094;SDS011;27753;55.724;37.612;2024-02-23T08:03:48;42.85;;;22.35;;
42094;SDS011;27753;55.724;37.612;2024-02-23T08:06:14;49.42;;;27.13;;
42094;SDS011;27753;55.724;37.612;2024-02-23T08:08:40;51.17;;;28.08;;
42094;SDS011;27753;55.724;37.612;2024-02-23T08:11:05;43.47;;;23.75;;
42094;SDS011;27753;55.724;37.612;2024-02-23T08:13:31;43.97;;;25.00;;
42094;SDS011;27753;55.724;37.612;2024-02-23T08:15:57;44.60;;;25.45;;
42094;SDS011;27753;55.724;37.612;2024-02-23T08:18:23;40.20;;;22.67;;
42094;SDS011;27753;55.724;37.612;2024-02-23T08:20:49;38.00;;;23.08;;
42094;SDS011;27753;55.724;37.612;2024-02-23T08:23:17;51.30;;;25.08;;
42094;SDS011;27753;55.724;37.612;2024-02-23T08:25:44;41.95;;;24.77;;
42094;SDS011;27753;55.724;37.612;2024-02-23T08:28:10;40.28;;;20.13;;
42094;SDS011;27753;55.724;37.612;2024-02-23T08:30:35;41.20;;;22.38;;
42094;SDS011;27753;55.724;37.612;2024-02-23T08:33:01;47.83;;;26.33;;
42094;SDS011;27753;55.724;37.612;2024-02-23T08:35:27;46.90;;;25.27;;
42094;SDS011;27753;55.724;37.612;2024-02-23T08:37:53;46.90;;;24.08;;
42094;SDS011;27753;55.724;37.612;2024-02-23T08:40:19;47.13;;;25.15;;
42094;SDS011;27753;55.724;37.612;2024-02-23T08:42:44;47.58;;;23.17;;
42094;SDS011;27753;55.724;37.612;2024-02-23T08:45:12;47.70;;;22.05;;
42094;SDS011;27753;55.724;37.612;2024-02-23T08:47:38;44.25;;;25.02;;
42094;SDS011;27753;55.724;37.612;2024-02-23T08:50:05;39.20;;;22.73;;
42094;SDS011;27753;55.724;37.612;2024-02-23T08:52:31;46.75;;;24.55;;
42094;SDS011;27753;55.724;37.612;2024-02-23T08:54:57;43.47;;;22.83;;
42094;SDS011;27753;55.724;37.612;2024-02-23T08:59:51;44.00;;;21.02;;
42094;SDS011;27753;55.724;37.612;2024-02-23T09:02:17;37.08;;;20.85;;
42094;SDS011;27753;55.724;37.612;2024-02-23T09:04:43;37.05;;;22.50;;
42094;SDS011;27753;55.724;37.612;2024-02-23T09:07:13;41.47;;;24.20;;
42094;SDS011;27753;55.724;37.612;2024-02-23T09:09:39;38.70;;;22.25;;
42094;SDS011;27753;55.724;37.612;2024-02-23T09:12:05;43.78;;;21.38;;
42094;SDS011;27753;55.724;37.612;2024-02-23T09:14:36;32.30;;;20.90;;
42094;SDS011;27753;55.724;37.612;2024-02-23T09:17:03;45.53;;;21.85;;
42094;SDS011;27753;55.724;37.612;2024-02-23T09:21:56;37.10;;;20.33;;
42094;SDS011;27753;55.724;37.612;2024-02-23T09:24:22;40.58;;;20.58;;
42094;SDS011;27753;55.724;37.612;2024-02-23T09:26:48;37.28;;;21.05;;
42094;SDS011;27753;55.724;37.612;2024-02-23T09:29:14;37.90;;;24.33;;
42094;SDS011;27753;55.724;37.612;2024-02-23T09:31:40;38.85;;;20.15;;
42094;SDS011;27753;55.724;37.612;2024-02-23T09:34:06;36.78;;;19.80;;
42094;SDS011;27753;55.724;37.612;2024-02-23T09:36:32;41.03;;;20.15;;
42094;SDS011;27753;55.724;37.612;2024-02-23T09:38:58;39.45;;;20.08;;
42094;SDS011;27753;55.724;37.612;2024-02-23T09:41:24;35.90;;;22.38;;
42094;SDS011;27753;55.724;37.612;2024-02-23T09:43:50;41.25;;;21.58;;
42094;SDS011;27753;55.724;37.612;2024-02-23T09:46:16;37.15;;;18.50;;
42094;SDS011;27753;55.724;37.612;2024-02-23T09:48:45;40.83;;;21.80;;
42094;SDS011;27753;55.724;37.612;2024-02-23T09:51:13;40.40;;;21.02;;
42094;SDS011;27753;55.724;37.612;2024-02-23T09:53:40;35.63;;;21.10;;
42094;SDS011;27753;55.724;37.612;2024-02-23T09:56:09;35.00;;;18.08;;
42094;SDS011;27753;55.724;37.612;2024-02-23T09:58:36;40.05;;;22.67;;
42094;SDS011;27753;55.724;37.612;2024-02-23T10:01:03;41.90;;;22.42;;
42094;SDS011;27753;55.724;37.612;2024-02-23T10:03:29;37.38;;;19.75;;
42094;SDS011;27753;55.724;37.612;2024-02-23T10:05:56;40.92;;;20.75;;
42094;SDS011;27753;55.724;37.612;2024-02-23T10:08:22;45.30;;;24.08;;
42094;SDS011;27753;55.724;37.612;2024-02-23T10:10:48;37.97;;;22.33;;
42094;SDS011;27753;55.724;37.612;2024-02-23T10:13:19;39.08;;;23.00;;
42094;SDS011;27753;55.724;37.612;2024-02-23T10:15:51;44.65;;;23.17;;
42094;SDS011;27753;55.724;37.612;2024-02-23T10:18:18;47.05;;;24.73;;
42094;SDS011;27753;55.724;37.612;2024-02-23T10:20:44;39.43;;;23.27;;
42094;SDS011;27753;55.724;37.612;2024-02-23T10:23:11;39.95;;;21.73;;
42094;SDS011;27753;55.724;37.612;2024-02-23T10:25:37;47.17;;;24.75;;
42094;SDS011;27753;55.724;37.612;2024-02-23T10:28:05;42.70;;;24.15;;
42094;SDS011;27753;55.724;37.612;2024-02-23T10:30:31;46.67;;;24.00;;
42094;SDS011;27753;55.724;37.612;2024-02-23T10:32:58;45.60;;;22.60;;
42094;SDS011;27753;55.724;37.612;2024-02-23T10:35:25;38.97;;;24.90;;
42094;SDS011;27753;55.724;37.612;2024-02-23T10:37:52;45.72;;;25.92;;
42094;SDS011;27753;55.724;37.612;2024-02-23T10:40:20;43.97;;;21.98;;
42094;SDS011;27753;55.724;37.612;2024-02-23T10:42:48;47.92;;;24.17;;
42094;SDS011;27753;55.724;37.612;2024-02-23T10:45:19;42.33;;;21.30;;
42094;SDS011;27753;55.724;37.612;2024-02-23T10:47:49;50.40;;;25.23;;
42094;SDS011;27753;55.724;37.612;2024-02-23T10:50:16;48.42;;;27.00;;
42094;SDS011;27753;55.724;37.612;2024-02-23T10:52:44;51.92;;;26.10;;
42094;SDS011;27753;55.724;37.612;2024-02-23T10:55:12;46.47;;;22.15;;
42094;SDS011;27753;55.724;37.612;2024-02-23T10:57:39;41.42;;;23.90;;
42094;SDS011;27753;55.724;37.612;2024-02-23T11:00:06;42.50;;;24.15;;
42094;SDS011;27753;55.724;37.612;2024-02-23T11:02:39;48.60;;;26.30;;
42094;SDS011;27753;55.724;37.612;2024-02-23T11:05:10;51.78;;;23.25;;
42094;SDS011;27753;55.724;37.612;2024-02-23T11:07:38;44.97;;;24.88;;
42094;SDS011;27753;55.724;37.612;2024-02-23T11:10:05;57.33;;;27.35;;
42094;SDS011;27753;55.724;37.612;2024-02-23T11:12:31;51.67;;;26.42;;
42094;SDS011;27753;55.724;37.612;2024-02-23T11:14:59;37.58;;;22.52;;
42094;SDS011;27753;55.724;37.612;2024-02-23T11:17:32;55.90;;;25.67;;
42094;SDS011;27753;55.724;37.612;2024-02-23T11:20:02;46.58;;;24.95;;
42094;SDS011;27753;55.724;37.612;2024-02-23T11:22:33;50.08;;;21.60;;
42094;SDS011;27753;55.724;37.612;2024-02-23T11:25:03;48.78;;;24.38;;
42094;SDS011;27753;55.724;37.612;2024-02-23T11:30:08;47.33;;;22.80;;
42094;SDS011;27753;55.724;37.612;2024-02-23T11:32:46;46.75;;;24.33;;
42094;SDS011;27753;55.724;37.612;2024-02-23T11:35:16;48.40;;;24.73;;
42094;SDS011;27753;55.724;37.612;2024-02-23T11:37:56;47.47;;;25.02;;
42094;SDS011;27753;55.724;37.612;2024-02-23T11:40:28;46.97;;;24.40;;
42094;SDS011;27753;55.724;37.612;2024-02-23T11:42:55;46.13;;;23.52;;
42094;SDS011;27753;55.724;37.612;2024-02-23T11:45:22;47.05;;;26.60;;
42094;SDS011;27753;55.724;37.612;2024-02-23T11:47:52;39.00;;;19.63;;
42094;SDS011;27753;55.724;37.612;2024-02-23T11:50:18;52.78;;;25.02;;
42094;SDS011;27753;55.724;37.612;2024-02-23T11:52:46;49.67;;;24.52;;
42094;SDS011;27753;55.724;37.612;2024-02-23T11:55:12;37.28;;;21.40;;
42094;SDS011;27753;55.724;37.612;2024-02-23T11:57:44;48.50;;;28.42;;
42094;SDS011;27753;55.724;37.612;2024-02-23T12:00:10;45.58;;;24.85;;
42094;SDS011;27753;55.724;37.612;2024-02-23T12:02:36;49.47;;;23.30;;
42094;SDS011;27753;55.724;37.612;2024-02-23T12:05:02;51.78;;;27.48;;
42094;SDS011;27753;55.724;37.612;2024-02-23T12:07:31;55.30;;;26.05;;
42094;SDS011;27753;55.724;37.612;2024-02-23T12:09:59;47.95;;;25.63;;
42094;SDS011;27753;55.724;37.612;2024-02-23T12:12:25;47.63;;;25.10;;
42094;SDS011;27753;55.724;37.612;2024-02-23T12:14:51;51.35;;;25.27;;
42094;SDS011;27753;55.724;37.612;2024-02-23T12:17:18;39.50;;;21.63;;
42094;SDS011;27753;55.724;37.612;2024-02-23T12:19:43;44.50;;;22.73;;
42094;SDS011;27753;55.724;37.612;2024-02-23T12:22:12;48.00;;;25.13;;
42094;SDS011;27753;55.724;37.612;2024-02-23T12:24:39;55.53;;;25.92;;
42094;SDS011;27753;55.724;37.612;2024-02-23T12:27:06;53.72;;;26.48;;
42094;SDS011;27753;55.724;37.612;2024-02-23T12:29:32;43.28;;;23.95;;
42094;SDS011;27753;55.724;37.612;2024-02-23T12:32:02;53.05;;;29.50;;
42094;SDS011;27753;55.724;37.612;2024-02-23T12:34:29;49.65;;;27.60;;
42094;SDS011;27753;55.724;37.612;2024-02-23T12:36:55;45.08;;;23.80;;
42094;SDS011;27753;55.724;37.612;2024-02-23T12:39:21;52.83;;;23.13;;
42094;SDS011;27753;55.724;37.612;2024-02-23T12:41:48;58.72;;;26.90;;
42094;SDS011;27753;55.724;37.612;2024-02-23T12:44:13;50.88;;;25.48;;
42094;SDS011;27753;55.724;37.612;2024-02-23T12:46:40;59.97;;;30.35;;
42094;SDS011;27753;55.724;37.612;2024-02-23T12:49:06;63.40;;;27.52;;
42094;SDS011;27753;55.724;37.612;2024-02-23T12:51:31;61.38;;;28.70;;
42094;SDS011;27753;55.724;37.612;2024-02-23T12:53:57;57.63;;;29.52;;
42094;SDS011;27753;55.724;37.612;2024-02-23T12:56:25;64.18;;;31.02;;
42094;SDS011;27753;55.724;37.612;2024-02-23T12:58:50;50.00;;;29.25;;
42094;SDS011;27753;55.724;37.612;2024-02-23T13:01:18;61.15;;;29.50;;
42094;SDS011;27753;55.724;37.612;2024-02-23T13:03:44;62.40;;;30.08;;
42094;SDS011;27753;55.724;37.612;2024-02-23T13:06:10;61.47;;;32.30;;
42094;SDS011;27753;55.724;37.612;2024-02-23T13:08:38;71.82;;;32.60;;
42094;SDS011;27753;55.724;37.612;2024-02-23T13:13:31;65.07;;;30.40;;
42094;SDS011;27753;55.724;37.612;2024-02-23T13:15:57;62.22;;;27.67;;
42094;SDS011;27753;55.724;37.612;2024-02-23T13:18:23;60.65;;;27.67;;
42094;SDS011;27753;55.724;37.612;2024-02-23T13:20:49;63.20;;;32.83;;
42094;SDS011;27753;55.724;37.612;2024-02-23T13:23:16;57.42;;;30.75;;
42094;SDS011;27753;55.724;37.612;2024-02-23T13:25:42;62.88;;;27.98;;
42094;SDS011;27753;55.724;37.612;2024-02-23T13:28:08;58.50;;;29.67;;
42094;SDS011;27753;55.724;37.612;2024-02-23T13:30:35;59.83;;;32.92;;
42094;SDS011;27753;55.724;37.612;2024-02-23T13:33:02;69.53;;;28.52;;
42094;SDS011;27753;55.724;37.612;2024-02-23T13:35:28;58.25;;;30.98;;
42094;SDS011;27753;55.724;37.612;2024-02-23T13:37:54;64.45;;;29.05;;
42094;SDS011;27753;55.724;37.612;2024-02-23T13:40:22;61.78;;;31.08;;
42094;SDS011;27753;55.724;37.612;2024-02-23T13:42:48;74.05;;;33.13;;
42094;SDS011;27753;55.724;37.612;2024-02-23T13:45:18;67.55;;;30.20;;
42094;SDS011;27753;55.724;37.612;2024-02-23T13:47:54;68.80;;;33.17;;
42094;SDS011;27753;55.724;37.612;2024-02-23T13:50:27;59.30;;;30.75;;
42094;SDS011;27753;55.724;37.612;2024-02-23T13:52:53;70.90;;;33.38;;
42094;SDS011;27753;55.724;37.612;2024-02-23T13:55:19;65.45;;;32.67;;
42094;SDS011;27753;55.724;37.612;2024-02-23T13:57:46;60.25;;;29.50;;
42094;SDS011;27753;55.724;37.612;2024-02-23T14:00:12;69.18;;;34.65;;
42094;SDS011;27753;55.724;37.612;2024-02-23T14:02:39;60.88;;;28.92;;
42094;SDS011;27753;55.724;37.612;2024-02-23T14:05:07;70.70;;;36.58;;
42094;SDS011;27753;55.724;37.612;2024-02-23T14:07:33;63.47;;;31.23;;
42094;SDS011;27753;55.724;37.612;2024-02-23T14:09:59;75.40;;;32.50;;
42094;SDS011;27753;55.724;37.612;2024-02-23T14:12:25;62.80;;;32.08;;
42094;SDS011;27753;55.724;37.612;2024-02-23T14:14:51;68.97;;;33.72;;